createdAt,value
2019-03-30T00:02:23.508Z,6.30
2019-03-30T00:04:54.263Z,6.30
2019-03-30T00:07:25.021Z,6.30
2019-03-30T00:09:55.863Z,6.30
2019-03-30T00:12:26.605Z,6.40
2019-03-30T00:14:57.428Z,6.30
2019-03-30T00:17:28.272Z,6.30
2019-03-30T00:19:59.132Z,6.20
2019-03-30T00:22:29.907Z,6.20
2019-03-30T00:25:00.711Z,6.20
2019-03-30T00:27:31.561Z,6.20
2019-03-30T00:30:02.377Z,6.30
2019-03-30T00:32:33.143Z,6.20
2019-03-30T00:35:06.014Z,6.20
2019-03-30T00:37:36.795Z,6.20
2019-03-30T00:40:07.613Z,6.20
2019-03-30T00:42:38.317Z,6.10
2019-03-30T00:45:09.082Z,6.00
2019-03-30T00:47:39.988Z,5.60
2019-03-30T00:50:10.895Z,5.60
2019-03-30T00:52:41.802Z,5.60
2019-03-30T00:55:12.569Z,5.60
2019-03-30T00:57:43.418Z,5.60
2019-03-30T01:00:14.309Z,5.60
2019-03-30T01:02:45.171Z,5.70
2019-03-30T01:05:15.896Z,5.70
2019-03-30T01:07:46.688Z,5.60
2019-03-30T01:10:17.568Z,5.40
2019-03-30T01:12:48.392Z,5.30
2019-03-30T01:15:19.233Z,5.30
2019-03-30T01:17:50.090Z,5.40
2019-03-30T01:20:20.878Z,5.30
2019-03-30T01:22:51.677Z,5.30
2019-03-30T01:25:22.468Z,5.30
2019-03-30T01:27:53.310Z,5.30
2019-03-30T01:30:24.048Z,5.30
2019-03-30T01:32:54.768Z,5.30
2019-03-30T01:35:25.717Z,5.30
2019-03-30T01:37:56.771Z,5.30
2019-03-30T01:40:27.586Z,5.30
2019-03-30T01:42:58.223Z,5.20
2019-03-30T01:45:28.966Z,5.20
2019-03-30T01:47:59.775Z,5.20
2019-03-30T01:50:30.738Z,5.20
2019-03-30T01:53:01.473Z,5.10
2019-03-30T01:55:32.301Z,5.10
2019-03-30T01:58:03.076Z,5.10
2019-03-30T02:00:33.753Z,5.10
2019-03-30T02:03:04.618Z,5.00
2019-03-30T02:05:35.457Z,4.90
2019-03-30T02:08:06.191Z,4.90
2019-03-30T02:10:41.830Z,4.90
2019-03-30T02:13:12.929Z,4.90
2019-03-30T02:15:43.765Z,4.80
2019-03-30T02:18:14.567Z,4.80
2019-03-30T02:20:46.426Z,4.80
2019-03-30T02:23:17.251Z,4.70
2019-03-30T02:25:48.099Z,4.70
2019-03-30T02:28:18.926Z,4.60
2019-03-30T02:30:49.675Z,4.60
2019-03-30T02:33:20.446Z,4.60
2019-03-30T02:35:51.258Z,4.60
2019-03-30T02:38:21.988Z,4.60
2019-03-30T02:40:52.677Z,4.60
2019-03-30T02:43:23.378Z,4.60
2019-03-30T02:45:54.052Z,4.60
2019-03-30T02:48:24.748Z,4.60
2019-03-30T02:50:55.464Z,4.50
2019-03-30T02:53:26.203Z,4.50
2019-03-30T02:55:56.902Z,4.50
2019-03-30T02:58:27.654Z,4.40
2019-03-30T03:00:58.480Z,4.40
2019-03-30T03:03:29.308Z,4.50
2019-03-30T03:06:00.187Z,4.50
2019-03-30T03:08:31.237Z,4.40
2019-03-30T03:11:01.968Z,4.50
2019-03-30T03:13:32.824Z,4.50
2019-03-30T03:16:03.751Z,4.50
2019-03-30T03:18:34.579Z,4.50
2019-03-30T03:21:08.407Z,4.50
2019-03-30T03:23:37.854Z,4.40
2019-03-30T03:26:08.711Z,4.40
2019-03-30T03:28:39.493Z,4.30
2019-03-30T03:31:10.533Z,4.30
2019-03-30T03:33:41.335Z,4.30
2019-03-30T03:36:12.193Z,4.20
2019-03-30T03:38:42.911Z,4.20
2019-03-30T03:41:13.675Z,4.20
2019-03-30T03:43:44.361Z,4.20
2019-03-30T03:46:15.215Z,4.20
2019-03-30T03:48:45.891Z,4.20
2019-03-30T03:51:25.970Z,4.30
2019-03-30T03:53:50.809Z,4.30
2019-03-30T03:56:24.192Z,4.30
2019-03-30T03:58:57.213Z,4.30
2019-03-30T04:01:30.043Z,4.30
2019-03-30T04:04:02.956Z,4.30
2019-03-30T04:06:34.242Z,4.30
2019-03-30T04:09:06.811Z,4.20
2019-03-30T04:11:40.242Z,4.20
2019-03-30T04:14:13.923Z,4.20
2019-03-30T04:16:44.662Z,4.20
2019-03-30T04:19:15.557Z,4.10
2019-03-30T04:21:46.218Z,4.10
2019-03-30T04:24:16.958Z,4.10
2019-03-30T04:26:47.778Z,4.10
2019-03-30T04:29:18.474Z,4.00
2019-03-30T04:31:49.257Z,3.90
2019-03-30T04:34:19.996Z,3.80
2019-03-30T04:36:50.952Z,3.80
2019-03-30T04:39:21.689Z,3.80
2019-03-30T04:41:52.443Z,3.70
2019-03-30T04:44:23.182Z,3.70
2019-03-30T04:46:53.917Z,3.60
2019-03-30T04:49:24.769Z,3.50
2019-03-30T04:51:57.730Z,3.50
2019-03-30T04:54:27.935Z,3.40
2019-03-30T04:56:58.753Z,3.40
2019-03-30T04:59:29.566Z,3.40
2019-03-30T05:02:00.268Z,3.30
2019-03-30T05:04:31.077Z,3.30
2019-03-30T05:07:01.826Z,3.30
2019-03-30T05:09:32.720Z,3.20
2019-03-30T05:12:03.526Z,3.20
2019-03-30T05:14:34.265Z,3.20
2019-03-30T05:17:05.004Z,3.10
2019-03-30T05:19:35.888Z,3.10
2019-03-30T05:22:13.506Z,3.10
2019-03-30T05:24:39.157Z,3.10
2019-03-30T05:27:09.897Z,3.10
2019-03-30T05:29:40.702Z,3.10
2019-03-30T05:32:11.520Z,3.10
2019-03-30T05:34:42.210Z,3.10
2019-03-30T05:37:13.070Z,3.10
2019-03-30T05:39:43.810Z,3.10
2019-03-30T05:42:14.616Z,3.20
2019-03-30T05:44:45.303Z,3.20
2019-03-30T05:47:16.214Z,3.30
2019-03-30T05:49:46.910Z,3.30
2019-03-30T05:52:26.238Z,3.30
2019-03-30T05:54:50.271Z,3.40
2019-03-30T05:57:21.009Z,3.40
2019-03-30T05:59:51.693Z,3.40
2019-03-30T06:02:22.479Z,3.50
2019-03-30T06:04:53.358Z,3.60
2019-03-30T06:07:24.065Z,3.70
2019-03-30T06:09:54.893Z,3.70
2019-03-30T06:12:25.796Z,3.80
2019-03-30T06:14:56.522Z,3.90
2019-03-30T06:17:27.203Z,3.90
2019-03-30T06:19:58.100Z,4.00
2019-03-30T06:22:39.787Z,4.00
2019-03-30T06:25:01.399Z,4.10
2019-03-30T06:27:32.127Z,4.30
2019-03-30T06:30:23.821Z,4.30
2019-03-30T06:32:54.587Z,4.40
2019-03-30T06:35:25.881Z,4.60
2019-03-30T06:37:56.747Z,4.70
2019-03-30T06:40:27.534Z,4.70
2019-03-30T06:42:58.655Z,4.90
2019-03-30T06:45:29.296Z,5.00
2019-03-30T06:48:00.037Z,5.10
2019-03-30T06:50:32.869Z,5.20
2019-03-30T06:53:03.665Z,5.30
2019-03-30T06:55:34.409Z,5.50
2019-03-30T06:58:05.152Z,5.60
2019-03-30T07:00:36.894Z,5.80
2019-03-30T07:03:08.475Z,5.90
2019-03-30T07:05:41.629Z,6.10
2019-03-30T07:08:17.103Z,6.30
2019-03-30T07:10:48.423Z,6.40
2019-03-30T07:13:19.226Z,6.50
2019-03-30T07:15:50.674Z,6.70
2019-03-30T07:18:21.497Z,6.80
2019-03-30T07:20:52.310Z,6.90
2019-03-30T07:23:23.173Z,7.00
2019-03-30T07:25:54.016Z,7.20
2019-03-30T07:28:24.823Z,7.30
2019-03-30T07:30:55.573Z,7.40
2019-03-30T07:33:26.415Z,7.50
2019-03-30T07:35:57.322Z,7.60
2019-03-30T07:38:28.989Z,7.80
2019-03-30T07:40:59.685Z,7.90
2019-03-30T07:43:30.453Z,8.10
2019-03-30T07:46:01.129Z,8.20
2019-03-30T07:48:31.885Z,8.30
2019-03-30T07:51:02.749Z,8.40
2019-03-30T07:53:43.935Z,8.60
2019-03-30T07:56:08.664Z,8.70
2019-03-30T07:58:38.488Z,8.90
2019-03-30T08:01:09.347Z,8.90
2019-03-30T08:03:40.116Z,9.10
2019-03-30T08:06:10.839Z,9.30
2019-03-30T08:08:41.631Z,9.40
2019-03-30T08:11:14.414Z,9.50
2019-03-30T08:13:45.029Z,9.70
2019-03-30T08:16:15.820Z,9.80
2019-03-30T08:18:46.703Z,9.90
2019-03-30T08:21:17.510Z,9.90
2019-03-30T08:23:48.445Z,10.00
2019-03-30T08:26:19.275Z,10.30
2019-03-30T08:28:50.126Z,10.50
2019-03-30T08:31:20.929Z,10.60
2019-03-30T08:33:51.792Z,10.70
2019-03-30T08:36:22.517Z,10.90
2019-03-30T08:38:53.374Z,10.90
2019-03-30T08:41:24.173Z,11.10
2019-03-30T08:43:54.876Z,11.20
2019-03-30T08:46:25.739Z,11.40
2019-03-30T08:48:56.455Z,11.50
2019-03-30T08:51:27.167Z,11.50
2019-03-30T08:53:57.903Z,11.60
2019-03-30T08:56:28.746Z,11.60
2019-03-30T08:58:59.549Z,11.80
2019-03-30T09:01:30.394Z,11.70
2019-03-30T09:04:01.181Z,11.80
2019-03-30T09:06:31.983Z,11.90
2019-03-30T09:09:02.843Z,11.90
2019-03-30T09:11:33.672Z,12.10
2019-03-30T09:14:04.586Z,12.30
2019-03-30T09:16:35.324Z,12.50
2019-03-30T09:19:06.227Z,12.60
2019-03-30T09:21:37.129Z,12.70
2019-03-30T09:24:09.820Z,12.90
2019-03-30T09:26:40.561Z,13.00
2019-03-30T09:29:11.298Z,12.90
2019-03-30T09:31:42.120Z,13.00
2019-03-30T09:34:13.019Z,13.00
2019-03-30T09:36:43.810Z,13.10
2019-03-30T09:39:14.894Z,13.20
2019-03-30T09:41:45.748Z,13.50
2019-03-30T09:44:16.582Z,13.60
2019-03-30T09:46:47.378Z,13.70
2019-03-30T09:49:18.096Z,13.70
2019-03-30T09:51:48.920Z,13.90
2019-03-30T09:54:24.070Z,14.10
2019-03-30T09:56:52.181Z,14.20
2019-03-30T09:59:22.934Z,14.30
2019-03-30T10:01:53.882Z,14.10
2019-03-30T10:04:24.570Z,14.20
2019-03-30T10:06:55.423Z,14.30
2019-03-30T10:09:26.324Z,14.30
2019-03-30T10:11:57.180Z,14.50
2019-03-30T10:14:28.055Z,14.70
2019-03-30T10:16:58.924Z,14.90
2019-03-30T10:19:29.720Z,14.80
2019-03-30T10:22:00.528Z,15.00
2019-03-30T10:24:38.124Z,15.20
2019-03-30T10:27:03.830Z,15.30
2019-03-30T10:29:34.648Z,15.50
2019-03-30T10:32:05.402Z,15.60
2019-03-30T10:34:39.320Z,15.80
2019-03-30T10:37:08.647Z,16.00
2019-03-30T10:39:39.497Z,16.20
2019-03-30T10:42:10.215Z,16.40
2019-03-30T10:44:41.042Z,16.50
2019-03-30T10:47:11.777Z,16.60
2019-03-30T10:49:42.567Z,16.80
2019-03-30T10:52:13.255Z,17.00
2019-03-30T10:54:52.613Z,17.20
2019-03-30T10:57:16.593Z,17.40
2019-03-30T10:59:47.310Z,17.60
2019-03-30T11:02:18.093Z,17.90
2019-03-30T11:04:49.051Z,18.10
2019-03-30T11:07:19.900Z,18.30
2019-03-30T11:09:50.734Z,18.40
2019-03-30T11:12:21.504Z,18.70
2019-03-30T11:14:52.393Z,18.90
2019-03-30T11:17:23.135Z,19.10
2019-03-30T11:19:53.871Z,19.30
2019-03-30T11:22:24.748Z,18.90
2019-03-30T11:25:06.616Z,19.20
2019-03-30T11:27:28.206Z,19.20
2019-03-30T11:29:59.064Z,19.40
2019-03-30T11:32:29.951Z,19.70
2019-03-30T11:35:00.814Z,20.10
2019-03-30T11:37:31.686Z,20.40
2019-03-30T11:40:02.565Z,20.80
2019-03-30T11:42:33.175Z,21.00
2019-03-30T11:45:04.133Z,21.20
2019-03-30T11:47:34.985Z,21.40
2019-03-30T11:50:06.441Z,21.60
2019-03-30T11:52:37.211Z,21.70
2019-03-30T11:55:20.980Z,21.90
2019-03-30T11:57:40.599Z,22.30
2019-03-30T12:00:11.655Z,22.60
2019-03-30T12:02:42.628Z,22.80
2019-03-30T12:05:13.376Z,23.00
2019-03-30T12:07:45.859Z,23.20
2019-03-30T12:10:16.670Z,23.40
2019-03-30T12:12:47.442Z,23.60
2019-03-30T12:15:18.346Z,23.90
2019-03-30T12:17:49.226Z,24.10
2019-03-30T12:20:20.057Z,24.30
2019-03-30T12:22:50.927Z,24.50
2019-03-30T12:25:34.473Z,24.60
2019-03-30T12:27:54.262Z,24.80
2019-03-30T12:30:25.146Z,25.00
2019-03-30T12:32:56.012Z,25.20
2019-03-30T12:35:26.864Z,25.50
2019-03-30T12:37:57.565Z,25.50
2019-03-30T12:40:28.288Z,25.70
2019-03-30T12:42:59.006Z,25.80
2019-03-30T12:45:29.773Z,26.00
2019-03-30T12:48:00.599Z,26.10
2019-03-30T12:50:31.395Z,26.10
2019-03-30T12:53:02.300Z,26.10
2019-03-30T12:55:33.065Z,26.10
2019-03-30T12:58:03.827Z,26.30
2019-03-30T13:00:34.600Z,26.60
2019-03-30T13:03:05.373Z,26.80
2019-03-30T13:05:36.267Z,26.80
2019-03-30T13:08:07.001Z,26.80
2019-03-30T13:10:37.790Z,27.00
2019-03-30T13:13:08.525Z,27.30
2019-03-30T13:15:39.382Z,27.40
2019-03-30T13:18:10.289Z,27.40
2019-03-30T13:20:59.859Z,27.60
2019-03-30T13:23:30.703Z,27.50
2019-03-30T13:26:03.817Z,27.00
2019-03-30T13:28:34.133Z,26.80
2019-03-30T13:31:05.014Z,27.10
2019-03-30T13:33:35.844Z,27.10
2019-03-30T13:36:10.630Z,27.70
2019-03-30T13:38:40.825Z,28.30
2019-03-30T13:41:14.119Z,28.80
2019-03-30T13:43:44.242Z,28.70
2019-03-30T13:46:15.136Z,29.20
2019-03-30T13:48:45.886Z,29.80
2019-03-30T13:51:16.732Z,30.10
2019-03-30T13:53:47.500Z,30.50
2019-03-30T13:56:18.287Z,30.80
2019-03-30T13:58:49.071Z,31.40
2019-03-30T14:01:20.025Z,31.10
2019-03-30T14:03:50.968Z,31.70
2019-03-30T14:06:21.738Z,32.20
2019-03-30T14:08:52.586Z,32.40
2019-03-30T14:11:23.419Z,32.70
2019-03-30T14:13:54.303Z,32.70
2019-03-30T14:16:25.036Z,32.40
2019-03-30T14:18:55.734Z,31.90
2019-03-30T14:21:26.513Z,31.00
2019-03-30T14:23:57.325Z,30.30
2019-03-30T14:26:31.607Z,30.00
2019-03-30T14:29:00.595Z,29.30
2019-03-30T14:31:31.452Z,29.00
2019-03-30T14:34:02.353Z,28.10
2019-03-30T14:36:33.121Z,27.10
2019-03-30T14:39:05.212Z,26.80
2019-03-30T14:41:35.997Z,26.60
2019-03-30T14:44:06.701Z,26.40
2019-03-30T14:46:37.509Z,26.10
2019-03-30T14:49:08.385Z,25.60
2019-03-30T14:51:39.173Z,25.70
2019-03-30T14:54:09.974Z,25.70
2019-03-30T14:56:45.799Z,26.00
2019-03-30T14:59:14.542Z,26.40
2019-03-30T15:01:45.798Z,27.10
2019-03-30T15:04:16.665Z,27.90
2019-03-30T15:06:47.562Z,28.10
2019-03-30T15:09:18.328Z,27.00
2019-03-30T15:11:49.053Z,27.80
2019-03-30T15:14:19.945Z,28.60
2019-03-30T15:16:50.651Z,29.00
2019-03-30T15:19:21.362Z,29.40
2019-03-30T15:21:52.245Z,29.60
2019-03-30T15:24:23.184Z,29.90
2019-03-30T15:27:00.308Z,30.10
2019-03-30T15:29:26.467Z,30.40
2019-03-30T15:31:57.346Z,30.60
2019-03-30T15:34:28.173Z,30.60
2019-03-30T15:36:58.898Z,30.50
2019-03-30T15:39:29.715Z,30.30
2019-03-30T15:42:00.526Z,30.10
2019-03-30T15:44:31.292Z,29.80
2019-03-30T15:47:02.040Z,29.40
2019-03-30T15:49:32.748Z,29.00
2019-03-30T15:52:13.908Z,28.30
2019-03-30T15:54:37.415Z,27.40
2019-03-30T15:57:14.167Z,26.60
2019-03-30T15:59:40.975Z,26.40
2019-03-30T16:02:11.812Z,26.20
2019-03-30T16:04:42.540Z,25.90
2019-03-30T16:07:13.449Z,25.50
2019-03-30T16:09:44.294Z,25.00
2019-03-30T16:12:15.016Z,24.70
2019-03-30T16:14:45.788Z,24.50
2019-03-30T16:17:16.564Z,24.30
2019-03-30T16:19:47.303Z,24.10
2019-03-30T16:22:18.145Z,23.90
2019-03-30T16:24:48.940Z,23.60
2019-03-30T16:27:28.796Z,23.30
2019-03-30T16:29:52.137Z,23.10
2019-03-30T16:32:22.894Z,22.90
2019-03-30T16:34:53.808Z,22.70
2019-03-30T16:37:24.564Z,22.40
2019-03-30T16:39:55.275Z,22.10
2019-03-30T16:42:26.052Z,22.10
2019-03-30T16:44:56.894Z,21.90
2019-03-30T16:47:27.783Z,21.90
2019-03-30T16:49:58.497Z,21.80
2019-03-30T16:52:29.388Z,21.60
2019-03-30T16:55:00.350Z,21.40
2019-03-30T16:57:42.553Z,21.20
2019-03-30T17:00:04.341Z,21.20
2019-03-30T17:02:35.151Z,21.00
2019-03-30T17:05:06.567Z,20.80
2019-03-30T17:07:37.496Z,20.80
2019-03-30T17:10:08.715Z,20.70
2019-03-30T17:12:39.583Z,20.60
2019-03-30T17:15:10.888Z,20.50
2019-03-30T17:17:41.682Z,20.40
2019-03-30T17:20:12.476Z,20.20
2019-03-30T17:22:43.261Z,20.10
2019-03-30T17:25:14.104Z,19.80
2019-03-30T17:27:57.338Z,19.70
2019-03-30T17:30:17.477Z,19.50
2019-03-30T17:32:48.222Z,19.30
2019-03-30T17:35:19.067Z,19.20
2019-03-30T17:37:49.858Z,19.10
2019-03-30T17:40:20.595Z,19.00
2019-03-30T17:42:51.256Z,18.90
2019-03-30T17:45:22.139Z,18.80
2019-03-30T17:47:52.876Z,18.70
2019-03-30T17:50:23.777Z,18.50
2019-03-30T17:52:54.600Z,18.40
2019-03-30T17:55:33.670Z,18.20
2019-03-30T17:58:11.976Z,18.10
2019-03-30T18:00:30.921Z,17.80
2019-03-30T18:03:01.933Z,17.60
2019-03-30T18:05:33.496Z,17.40
2019-03-30T18:08:04.540Z,17.20
2019-03-30T18:10:35.344Z,17.00
2019-03-30T18:13:06.235Z,16.90
2019-03-30T18:15:37.046Z,16.80
2019-03-30T18:18:07.718Z,16.60
2019-03-30T18:20:38.434Z,16.50
2019-03-30T18:23:09.285Z,16.30
2019-03-30T18:25:40.150Z,16.10
2019-03-30T18:28:10.991Z,16.00
2019-03-30T18:30:42.252Z,15.90
2019-03-30T18:33:13.316Z,15.80
2019-03-30T18:35:44.157Z,15.70
2019-03-30T18:38:14.860Z,15.60
2019-03-30T18:40:45.750Z,15.50
2019-03-30T18:43:16.491Z,15.40
2019-03-30T18:45:47.365Z,15.30
2019-03-30T18:48:18.769Z,15.20
2019-03-30T18:50:49.642Z,15.10
2019-03-30T18:53:20.415Z,15.10
2019-03-30T18:55:51.207Z,15.00
2019-03-30T18:58:22.085Z,14.90
2019-03-30T19:00:52.913Z,14.70
2019-03-30T19:03:23.617Z,14.60
2019-03-30T19:05:54.363Z,14.50
2019-03-30T19:08:25.223Z,14.40
2019-03-30T19:10:55.921Z,14.30
2019-03-30T19:13:26.672Z,14.20
2019-03-30T19:15:57.477Z,14.10
2019-03-30T19:18:28.339Z,14.10
2019-03-30T19:20:59.033Z,14.00
2019-03-30T19:23:29.917Z,13.90
2019-03-30T19:26:00.641Z,13.80
2019-03-30T19:28:31.483Z,13.70
2019-03-30T19:31:02.332Z,13.60
2019-03-30T19:33:33.088Z,13.40
2019-03-30T19:36:03.911Z,13.40
2019-03-30T19:38:34.644Z,13.20
2019-03-30T19:41:05.491Z,13.10
2019-03-30T19:43:36.194Z,13.10
2019-03-30T19:46:07.084Z,13.00
2019-03-30T19:48:37.789Z,12.90
2019-03-30T19:51:08.638Z,12.80
2019-03-30T19:53:39.388Z,12.70
2019-03-30T19:56:10.181Z,12.60
2019-03-30T19:58:40.999Z,12.50
2019-03-30T20:01:11.865Z,12.30
2019-03-30T20:03:42.764Z,12.20
2019-03-30T20:06:13.655Z,12.10
2019-03-30T20:08:44.350Z,12.00
2019-03-30T20:11:15.061Z,11.90
2019-03-30T20:13:45.970Z,11.70
2019-03-30T20:16:16.816Z,11.60
2019-03-30T20:18:47.538Z,11.50
2019-03-30T20:21:18.380Z,11.50
2019-03-30T20:23:49.177Z,11.40
2019-03-30T20:26:20.008Z,11.40
2019-03-30T20:28:50.851Z,11.30
2019-03-30T20:31:21.707Z,11.20
2019-03-30T20:33:52.439Z,11.00
2019-03-30T20:36:23.246Z,11.00
2019-03-30T20:38:54.042Z,10.90
2019-03-30T20:41:24.809Z,10.90
2019-03-30T20:43:55.726Z,10.80
2019-03-30T20:46:26.527Z,10.70
2019-03-30T20:48:57.283Z,10.60
2019-03-30T20:51:28.002Z,10.50
2019-03-30T20:53:58.806Z,10.40
2019-03-30T20:56:29.632Z,10.40
2019-03-30T20:59:00.333Z,10.30
2019-03-30T21:01:31.213Z,10.30
2019-03-30T21:04:02.005Z,10.20
2019-03-30T21:06:32.814Z,10.20
2019-03-30T21:09:05.174Z,10.20
2019-03-30T21:11:35.900Z,10.20
2019-03-30T21:14:06.722Z,10.20
2019-03-30T21:16:37.561Z,10.10
2019-03-30T21:19:08.390Z,10.00
2019-03-30T21:21:39.104Z,10.00
2019-03-30T21:24:09.914Z,10.00
2019-03-30T21:26:40.804Z,10.00
2019-03-30T21:29:11.729Z,10.00
2019-03-30T21:31:42.572Z,10.00
2019-03-30T21:34:13.448Z,9.90
2019-03-30T21:36:44.327Z,9.90
2019-03-30T21:39:15.196Z,9.70
2019-03-30T21:41:46.052Z,9.60
2019-03-30T21:44:22.315Z,9.60
2019-03-30T21:46:49.340Z,9.60
2019-03-30T21:49:20.078Z,9.60
2019-03-30T21:51:50.898Z,9.50
2019-03-30T21:54:21.719Z,9.50
2019-03-30T21:56:52.573Z,9.40
2019-03-30T21:59:23.387Z,9.40
2019-03-30T22:01:54.144Z,9.30
2019-03-30T22:04:24.883Z,9.30
2019-03-30T22:06:55.695Z,9.30
2019-03-30T22:09:26.429Z,9.30
2019-03-30T22:11:57.143Z,9.20
2019-03-30T22:14:46.831Z,9.20
2019-03-30T22:17:17.572Z,9.10
2019-03-30T22:19:48.288Z,9.10
2019-03-30T22:22:18.995Z,9.10
2019-03-30T22:24:49.934Z,9.10
2019-03-30T22:27:20.661Z,9.00
2019-03-30T22:29:51.585Z,9.00
2019-03-30T22:32:22.441Z,9.00
2019-03-30T22:34:53.283Z,8.90
2019-03-30T22:37:24.013Z,8.80
2019-03-30T22:39:54.819Z,8.80
2019-03-30T22:42:25.589Z,8.70
2019-03-30T22:44:56.428Z,8.70
2019-03-30T22:47:27.281Z,8.60
2019-03-30T22:49:58.075Z,8.60
2019-03-30T22:52:28.835Z,8.50
2019-03-30T22:54:59.579Z,8.50
2019-03-30T22:57:30.408Z,8.40
2019-03-30T23:00:01.136Z,8.40
2019-03-30T23:02:32.075Z,8.40
2019-03-30T23:05:02.931Z,8.30
2019-03-30T23:07:33.741Z,8.20
2019-03-30T23:10:05.012Z,8.20
2019-03-30T23:12:35.718Z,8.20
2019-03-30T23:15:07.183Z,8.20
2019-03-30T23:17:37.907Z,8.10
2019-03-30T23:20:08.685Z,8.10
2019-03-30T23:22:39.392Z,8.00
2019-03-30T23:25:10.299Z,7.90
2019-03-30T23:27:41.142Z,7.90
2019-03-30T23:30:12.132Z,7.80
2019-03-30T23:32:42.858Z,7.80
2019-03-30T23:35:13.648Z,7.70
2019-03-30T23:37:44.411Z,7.70
2019-03-30T23:40:15.211Z,7.70
2019-03-30T23:42:45.973Z,7.70
2019-03-30T23:45:16.827Z,7.60
2019-03-30T23:47:50.394Z,7.40
2019-03-30T23:50:21.138Z,7.40
2019-03-30T23:52:52.108Z,7.40
2019-03-30T23:55:22.809Z,7.30
2019-03-30T23:57:53.536Z,7.20
